Time;durP1;ratioP1;P1;durP2;ratioP2;P2;SDS_P1;SDS_P2;PMS_P1;PMS_P2;Temp;Humidity;BMP_temperature;BMP_pressure;BME280_temperature;BME280_humidity;BME280_pressure;Samples;Min_cycle;Max_cycle;Signal;HPM_P1;HPM_P2
2022/01/18 00:00:15;;;;;;;;;72.50;57.00;;;;;;;;5020926;28;45573;-96
2022/01/18 00:02:40;;;;;;;;;75.25;59.00;;;;;;;;5036981;28;45941;-96
2022/01/18 00:05:06;;;;;;;;;81.50;63.00;;;;;;;;5028723;28;45591;-96
2022/01/18 00:07:31;;;;;;;;;79.25;64.00;;;;;;;;5036216;28;48121;-96
2022/01/18 00:09:57;;;;;;;;;78.50;60.75;;;;;;;;5039776;28;45467;-95
2022/01/18 00:17:53;;;;;;;;;77.25;60.25;;;;;;;;5054579;28;45574;-95
2022/01/18 00:20:27;;;;;;;;;80.50;61.25;;;;;;;;5005690;28;46262;-96
2022/01/18 00:22:52;;;;;;;;;75.50;56.00;;;;;;;;5034292;28;45499;-96
2022/01/18 00:25:18;;;;;;;;;79.25;62.75;;;;;;;;5034026;28;45756;-96
2022/01/18 00:27:43;;;;;;;;;76.25;59.25;;;;;;;;5030364;28;46138;-95
2022/01/18 00:35:14;;;;;;;;;77.00;61.00;;;;;;;;5042677;28;45240;-96
2022/01/18 00:37:50;;;;;;;;;73.00;56.00;;;;;;;;5029824;28;48483;-96
2022/01/18 00:40:15;;;;;;;;;71.25;56.00;;;;;;;;5053179;28;45717;-96
2022/01/18 00:42:51;;;;;;;;;78.50;58.75;;;;;;;;5048854;28;45344;-96
2022/01/18 00:45:16;;;;;;;;;68.75;57.00;;;;;;;;5042832;28;45546;-96
2022/01/18 00:47:42;;;;;;;;;70.00;54.50;;;;;;;;5036754;28;47162;-96
2022/01/18 00:50:08;;;;;;;;;73.50;59.75;;;;;;;;5033309;28;45480;-95
2022/01/18 00:52:38;;;;;;;;;80.25;57.00;;;;;;;;5026005;28;45351;-96
2022/01/18 00:55:04;;;;;;;;;74.50;60.50;;;;;;;;5048407;28;45385;-96
2022/01/18 00:57:29;;;;;;;;;73.50;56.00;;;;;;;;5040948;28;48081;-96
2022/01/18 00:59:54;;;;;;;;;74.00;57.75;;;;;;;;5037631;28;45439;-96
2022/01/18 01:02:19;;;;;;;;;77.00;59.50;;;;;;;;5028858;28;45432;-96
2022/01/18 01:04:48;;;;;;;;;70.75;54.25;;;;;;;;5034618;28;45463;-96
2022/01/18 01:07:18;;;;;;;;;70.50;54.50;;;;;;;;5035526;28;47364;-95
2022/01/18 01:09:44;;;;;;;;;64.75;52.50;;;;;;;;5030723;28;45592;-96
2022/01/18 01:12:32;;;;;;;;;70.50;55.25;;;;;;;;5034583;28;45503;-96
2022/01/18 01:15:05;;;;;;;;;72.25;57.50;;;;;;;;5034748;28;45872;-96
2022/01/18 01:17:42;;;;;;;;;73.25;59.50;;;;;;;;5008849;28;47642;-96
2022/01/18 01:34:27;;;;;;;;;68.75;55.25;;;;;;;;5028835;28;45480;-96
2022/01/18 01:37:12;;;;;;;;;65.00;52.75;;;;;;;;5035855;28;45524;-96
2022/01/18 01:44:51;;;;;;;;;62.25;47.50;;;;;;;;4995939;28;45584;-96
2022/01/18 01:47:22;;;;;;;;;49.25;41.50;;;;;;;;4966404;28;45420;-95
2022/01/18 01:50:07;;;;;;;;;33.50;33.00;;;;;;;;4977635;28;45476;-96
2022/01/18 01:52:32;;;;;;;;;32.50;31.00;;;;;;;;4989697;28;45488;-96
2022/01/18 01:54:57;;;;;;;;;50.00;37.50;;;;;;;;4993870;28;45550;-96
2022/01/18 01:57:23;;;;;;;;;40.00;33.25;;;;;;;;5003703;28;45688;-96
2022/01/18 01:59:48;;;;;;;;;22.00;20.25;;;;;;;;5013914;28;47221;-96
2022/01/18 02:02:14;;;;;;;;;34.50;30.00;;;;;;;;4996510;28;45572;-96
2022/01/18 02:04:39;;;;;;;;;43.25;34.25;;;;;;;;4996927;28;45279;-95
2022/01/18 02:07:04;;;;;;;;;37.00;33.00;;;;;;;;4978247;28;45627;-96
2022/01/18 02:09:30;;;;;;;;;35.25;30.50;;;;;;;;4991879;28;47045;-96
2022/01/18 02:11:56;;;;;;;;;33.25;27.50;;;;;;;;5002555;28;45420;-96
2022/01/18 02:14:23;;;;;;;;;38.50;32.00;;;;;;;;4967748;28;45517;-96
2022/01/18 02:22:17;;;;;;;;;32.75;30.50;;;;;;;;5052813;28;45541;-96
2022/01/18 02:24:42;;;;;;;;;31.75;28.00;;;;;;;;5051683;28;45376;-96
2022/01/18 02:27:07;;;;;;;;;35.00;28.75;;;;;;;;5056872;28;45494;-96
2022/01/18 02:29:33;;;;;;;;;39.00;27.25;;;;;;;;5051409;28;48259;-96
2022/01/18 02:31:58;;;;;;;;;24.25;17.50;;;;;;;;5037060;28;45492;-96
2022/01/18 02:34:24;;;;;;;;;23.25;22.00;;;;;;;;5029703;28;45547;-96
2022/01/18 02:36:50;;;;;;;;;22.50;17.75;;;;;;;;5037034;28;45400;-96
2022/01/18 02:39:20;;;;;;;;;22.25;21.25;;;;;;;;5057731;22;47071;-96
2022/01/18 02:41:51;;;;;;;;;12.00;9.75;;;;;;;;5020156;28;45475;-96
2022/01/18 02:44:16;;;;;;;;;24.50;20.25;;;;;;;;5020633;28;45647;-96
2022/01/18 02:46:44;;;;;;;;;21.75;18.75;;;;;;;;5021192;28;45456;-96
2022/01/18 02:49:10;;;;;;;;;24.50;19.50;;;;;;;;5021659;28;48366;-96
2022/01/18 02:51:35;;;;;;;;;19.50;19.00;;;;;;;;5029236;28;45209;-96
2022/01/18 02:54:02;;;;;;;;;30.50;24.00;;;;;;;;5037653;28;45258;-96
2022/01/18 02:56:32;;;;;;;;;26.75;18.25;;;;;;;;5045737;28;45395;-96
2022/01/18 02:59:05;;;;;;;;;22.50;20.00;;;;;;;;5024730;28;47451;-96
2022/01/18 03:04:05;;;;;;;;;25.50;21.25;;;;;;;;5116744;22;45251;-95
2022/01/18 03:06:30;;;;;;;;;20.75;17.00;;;;;;;;5032594;28;45542;-96
2022/01/18 03:08:56;;;;;;;;;25.75;24.75;;;;;;;;5037418;28;48218;-96
2022/01/18 03:11:21;;;;;;;;;31.50;22.00;;;;;;;;5031584;28;45491;-96
2022/01/18 03:13:46;;;;;;;;;22.75;18.50;;;;;;;;5037150;28;45446;-96
2022/01/18 03:16:11;;;;;;;;;19.75;16.50;;;;;;;;5039986;28;45392;-96
2022/01/18 03:18:37;;;;;;;;;25.75;16.75;;;;;;;;5032400;28;46925;-96
2022/01/18 03:21:02;;;;;;;;;28.50;18.75;;;;;;;;5040472;28;45383;-96
2022/01/18 03:23:27;;;;;;;;;20.50;16.50;;;;;;;;5023125;28;45404;-96
2022/01/18 03:25:57;;;;;;;;;20.00;16.25;;;;;;;;5025557;28;45391;-96
2022/01/18 03:28:24;;;;;;;;;26.00;17.50;;;;;;;;5034123;28;45680;-96
2022/01/18 03:30:53;;;;;;;;;18.75;16.00;;;;;;;;5045276;28;45857;-95
2022/01/18 03:33:21;;;;;;;;;22.25;18.25;;;;;;;;5063115;28;45459;-96
2022/01/18 03:35:49;;;;;;;;;22.25;18.25;;;;;;;;5073210;27;44875;-96
2022/01/18 03:38:15;;;;;;;;;23.33;14.00;;;;;;;;5038708;22;47242;-96
2022/01/18 03:43:15;;;;;;;;;19.25;17.50;;;;;;;;5257094;22;46435;-96
2022/01/18 03:50:51;;;;;;;;;35.25;34.00;;;;;;;;5112723;22;46006;-96
2022/01/18 03:53:19;;;;;;;;;19.25;17.75;;;;;;;;5010683;28;45496;-96
2022/01/18 03:55:48;;;;;;;;;24.00;21.50;;;;;;;;5000546;28;45397;-96
2022/01/18 03:58:13;;;;;;;;;26.50;21.25;;;;;;;;5000854;28;46968;-96
2022/01/18 04:00:39;;;;;;;;;24.75;19.75;;;;;;;;5000107;28;45334;-96
2022/01/18 04:03:04;;;;;;;;;24.00;19.00;;;;;;;;4998882;28;45369;-96
2022/01/18 04:05:30;;;;;;;;;24.25;20.50;;;;;;;;4999033;28;45373;-96
2022/01/18 04:07:57;;;;;;;;;31.00;19.50;;;;;;;;4983825;28;47234;-96
2022/01/18 04:10:24;;;;;;;;;29.50;21.25;;;;;;;;4999224;28;45277;-96
2022/01/18 04:12:50;;;;;;;;;25.75;21.50;;;;;;;;4996543;28;45232;-96
2022/01/18 04:15:16;;;;;;;;;26.25;21.50;;;;;;;;5001670;28;45318;-96
2022/01/18 04:26:01;;;;;;;;;27.25;27.00;;;;;;;;5029744;28;45637;-96
2022/01/18 04:28:35;;;;;;;;;25.25;19.00;;;;;;;;5017904;28;48136;-96
2022/01/18 04:31:01;;;;;;;;;26.25;22.25;;;;;;;;5034923;28;44867;-96
2022/01/18 04:33:26;;;;;;;;;36.25;23.75;;;;;;;;5268900;22;46078;-96
2022/01/18 04:35:52;;;;;;;;;27.75;21.50;;;;;;;;5005824;28;51723;-96
2022/01/18 04:38:17;;;;;;;;;32.50;21.75;;;;;;;;5002986;28;47060;-96
2022/01/18 04:40:45;;;;;;;;;25.25;20.50;;;;;;;;5002348;28;45684;-96
2022/01/18 04:50:55;;;;;;;;;27.75;20.75;;;;;;;;4997050;28;45544;-96
2022/01/18 04:53:20;;;;;;;;;22.75;20.00;;;;;;;;4995584;28;45353;-96
2022/01/18 04:55:52;;;;;;;;;29.75;24.25;;;;;;;;4994889;28;45335;-96
2022/01/18 04:58:17;;;;;;;;;32.00;26.50;;;;;;;;4994672;28;47195;-96
2022/01/18 05:00:43;;;;;;;;;30.00;24.50;;;;;;;;4994434;28;51040;-96
2022/01/18 05:03:08;;;;;;;;;21.25;20.00;;;;;;;;4998820;28;45569;-96
2022/01/18 05:05:36;;;;;;;;;26.00;23.00;;;;;;;;4995151;28;45405;-96
2022/01/18 05:08:05;;;;;;;;;25.25;20.25;;;;;;;;4997969;28;47311;-96
2022/01/18 05:10:30;;;;;;;;;27.00;23.75;;;;;;;;4997966;28;45444;-96
2022/01/18 05:12:57;;;;;;;;;33.25;22.25;;;;;;;;4998860;28;45483;-96
2022/01/18 05:23:08;;;;;;;;;26.50;21.75;;;;;;;;4999665;28;45285;-96
2022/01/18 05:25:33;;;;;;;;;22.75;21.00;;;;;;;;4998550;28;45472;-96
2022/01/18 05:27:59;;;;;;;;;29.00;20.25;;;;;;;;5000877;28;47080;-96
2022/01/18 05:30:25;;;;;;;;;37.50;26.50;;;;;;;;5002903;28;45257;-96
2022/01/18 05:32:51;;;;;;;;;26.75;23.50;;;;;;;;5015242;28;45576;-96
2022/01/18 05:35:16;;;;;;;;;28.75;22.00;;;;;;;;5010714;28;44793;-96
2022/01/18 05:37:42;;;;;;;;;27.50;23.50;;;;;;;;5007917;28;46947;-96
2022/01/18 05:40:07;;;;;;;;;46.75;35.25;;;;;;;;5004765;28;45990;-96
2022/01/18 05:42:33;;;;;;;;;50.25;38.00;;;;;;;;5002779;28;45249;-96
2022/01/18 05:44:58;;;;;;;;;56.50;42.75;;;;;;;;5213116;22;46061;-96
2022/01/18 05:47:24;;;;;;;;;47.50;34.50;;;;;;;;5025969;28;47120;-96
2022/01/18 05:49:49;;;;;;;;;29.25;25.00;;;;;;;;5039334;28;45418;-96
2022/01/18 05:52:15;;;;;;;;;27.25;24.50;;;;;;;;5029714;28;44842;-96
2022/01/18 05:54:40;;;;;;;;;44.00;39.00;;;;;;;;5026051;28;45448;-96
2022/01/18 05:57:05;;;;;;;;;48.00;33.25;;;;;;;;5034192;28;47281;-96
2022/01/18 05:59:37;;;;;;;;;45.50;32.50;;;;;;;;5070562;28;45355;-96
2022/01/18 06:02:14;;;;;;;;;28.00;27.25;;;;;;;;5030085;28;45345;-96
2022/01/18 06:07:24;;;;;;;;;23.50;19.00;;;;;;;;5045977;28;45477;-96
2022/01/18 06:09:50;;;;;;;;;26.75;18.50;;;;;;;;5054614;28;45493;-96
2022/01/18 06:12:16;;;;;;;;;31.50;19.75;;;;;;;;5044541;27;45469;-96
2022/01/18 06:14:41;;;;;;;;;19.00;18.00;;;;;;;;5025948;28;45474;-96
2022/01/18 06:17:06;;;;;;;;;19.50;18.25;;;;;;;;5036429;28;47289;-96
2022/01/18 06:19:32;;;;;;;;;19.25;16.50;;;;;;;;5028913;28;45663;-96
2022/01/18 06:21:57;;;;;;;;;26.25;17.25;;;;;;;;5032677;28;45594;-96
2022/01/18 06:24:22;;;;;;;;;27.50;22.25;;;;;;;;5030345;28;44838;-96
2022/01/18 06:26:47;;;;;;;;;22.00;17.75;;;;;;;;5030540;28;46970;-96
2022/01/18 06:29:13;;;;;;;;;26.75;17.75;;;;;;;;5031276;28;45310;-96
2022/01/18 06:31:38;;;;;;;;;20.25;13.75;;;;;;;;5026255;28;45944;-95
2022/01/18 06:34:03;;;;;;;;;18.33;13.00;;;;;;;;5007449;28;45276;-95
2022/01/18 06:36:28;;;;;;;;;18.50;16.75;;;;;;;;5007292;28;47441;-95
2022/01/18 06:38:54;;;;;;;;;29.50;22.00;;;;;;;;5017489;28;45607;-95
2022/01/18 06:41:21;;;;;;;;;28.00;21.00;;;;;;;;5000473;28;45451;-95
2022/01/18 06:43:46;;;;;;;;;21.00;19.50;;;;;;;;5362622;22;46505;-96
2022/01/18 06:46:11;;;;;;;;;22.25;17.75;;;;;;;;5022511;28;46953;-96
2022/01/18 06:51:09;;;;;;;;;29.00;25.75;;;;;;;;4980713;28;45554;-96
2022/01/18 06:53:35;;;;;;;;;38.00;21.00;;;;;;;;4983036;28;45532;-96
2022/01/18 06:56:02;;;;;;;;;22.50;22.00;;;;;;;;4944755;28;47310;-96
2022/01/18 06:58:28;;;;;;;;;27.75;19.25;;;;;;;;4952706;28;45446;-96
2022/01/18 07:00:54;;;;;;;;;29.50;26.50;;;;;;;;4959836;28;45291;-95
2022/01/18 07:03:20;;;;;;;;;34.00;24.00;;;;;;;;4960136;28;45833;-96
2022/01/18 07:05:45;;;;;;;;;28.00;22.50;;;;;;;;4960446;28;47585;-96
2022/01/18 07:08:10;;;;;;;;;25.00;20.50;;;;;;;;5163234;22;45583;-96
2022/01/18 07:10:36;;;;;;;;;24.25;19.75;;;;;;;;5056521;28;45237;-96
2022/01/18 07:13:01;;;;;;;;;30.50;22.25;;;;;;;;5047286;28;44921;-96
2022/01/18 07:15:26;;;;;;;;;31.25;22.75;;;;;;;;5046377;28;46984;-96
2022/01/18 07:17:51;;;;;;;;;38.00;30.00;;;;;;;;5049871;28;45358;-96
2022/01/18 07:20:17;;;;;;;;;31.75;29.25;;;;;;;;5066351;28;45396;-96
2022/01/18 07:22:43;;;;;;;;;27.50;20.50;;;;;;;;5049999;28;45142;-95
2022/01/18 07:25:17;;;;;;;;;28.50;24.00;;;;;;;;5058854;28;47271;-96
2022/01/18 07:27:43;;;;;;;;;27.25;19.75;;;;;;;;5058564;28;46072;-92
2022/01/18 07:30:08;;;;;;;;;29.00;23.00;;;;;;;;5041547;28;45308;-90
2022/01/18 07:32:34;;;;;;;;;30.75;23.25;;;;;;;;5057131;28;45300;-89
2022/01/18 07:34:59;;;;;;;;;29.50;23.75;;;;;;;;5075488;28;46680;-90
2022/01/18 07:37:24;;;;;;;;;29.25;22.75;;;;;;;;5063283;28;45559;-92
2022/01/18 07:39:51;;;;;;;;;30.00;23.50;;;;;;;;5124477;22;45321;-93
2022/01/18 07:42:17;;;;;;;;;37.50;30.00;;;;;;;;4998089;28;45569;-92
2022/01/18 07:44:42;;;;;;;;;29.25;22.25;;;;;;;;5014069;28;45435;-92
2022/01/18 07:47:08;;;;;;;;;27.25;26.50;;;;;;;;4996565;28;45345;-93
2022/01/18 07:49:33;;;;;;;;;31.50;24.00;;;;;;;;5000861;28;45556;-92
2022/01/18 07:51:58;;;;;;;;;37.00;29.00;;;;;;;;4999658;28;45367;-93
2022/01/18 07:54:23;;;;;;;;;27.25;24.75;;;;;;;;5015122;28;45400;-93
2022/01/18 07:56:49;;;;;;;;;28.75;21.50;;;;;;;;5018886;28;45592;-93
2022/01/18 07:59:15;;;;;;;;;28.50;22.00;;;;;;;;5005641;28;45361;-91
2022/01/18 08:01:42;;;;;;;;;31.25;26.50;;;;;;;;5005239;28;45350;-92
2022/01/18 08:04:07;;;;;;;;;34.75;27.75;;;;;;;;4990038;28;47265;-93
2022/01/18 08:06:33;;;;;;;;;30.50;26.25;;;;;;;;5013409;28;45396;-92
2022/01/18 08:08:58;;;;;;;;;23.75;19.75;;;;;;;;5012339;28;45497;-92
2022/01/18 08:11:23;;;;;;;;;21.00;16.50;;;;;;;;5018131;28;45396;-91
2022/01/18 08:13:50;;;;;;;;;31.00;27.50;;;;;;;;5012071;28;45474;-92
2022/01/18 08:16:47;;;;;;;;;33.75;24.25;;;;;;;;5012601;28;45281;-94
2022/01/18 08:19:03;;;;;;;;;33.00;25.50;;;;;;;;5009614;28;46632;-93
2022/01/18 08:21:28;;;;;;;;;28.25;24.00;;;;;;;;4992459;28;45409;-96
2022/01/18 08:23:54;;;;;;;;;32.00;23.25;;;;;;;;5008307;28;47274;-96
2022/01/18 08:26:20;;;;;;;;;37.50;26.25;;;;;;;;5005957;28;45289;-96
2022/01/18 08:28:45;;;;;;;;;29.50;23.50;;;;;;;;4997844;28;44809;-96
2022/01/18 08:31:14;;;;;;;;;43.50;27.50;;;;;;;;5009030;28;45053;-96
2022/01/18 08:33:39;;;;;;;;;32.25;26.25;;;;;;;;5014791;28;47389;-96
2022/01/18 08:36:08;;;;;;;;;31.75;28.75;;;;;;;;4980823;28;45297;-96
2022/01/18 08:38:35;;;;;;;;;27.25;25.00;;;;;;;;5005106;28;45862;-95
2022/01/18 08:41:09;;;;;;;;;42.25;33.25;;;;;;;;5024773;28;45326;-96
2022/01/18 08:43:36;;;;;;;;;32.25;27.75;;;;;;;;5006811;28;47265;-94
2022/01/18 08:46:03;;;;;;;;;37.75;30.75;;;;;;;;5009085;28;45612;-96
2022/01/18 08:48:36;;;;;;;;;35.25;26.75;;;;;;;;5020165;28;45344;-96
2022/01/18 08:51:01;;;;;;;;;39.75;27.25;;;;;;;;5207638;22;45465;-95
2022/01/18 08:53:27;;;;;;;;;35.75;32.50;;;;;;;;5021432;28;46978;-93
2022/01/18 08:55:53;;;;;;;;;36.00;32.75;;;;;;;;5027756;28;45582;-92
2022/01/18 08:58:18;;;;;;;;;31.00;26.50;;;;;;;;5025821;28;45313;-93
2022/01/18 09:00:43;;;;;;;;;39.75;31.50;;;;;;;;5020249;28;45653;-96
2022/01/18 09:03:09;;;;;;;;;24.25;22.75;;;;;;;;5013525;28;46983;-93
2022/01/18 09:05:37;;;;;;;;;32.75;28.00;;;;;;;;5021708;28;45319;-96
2022/01/18 09:08:07;;;;;;;;;35.50;29.00;;;;;;;;5045912;28;45364;-95
2022/01/18 09:10:32;;;;;;;;;44.75;33.50;;;;;;;;5026350;28;45618;-96
2022/01/18 09:12:58;;;;;;;;;46.00;37.50;;;;;;;;5018086;28;47155;-86
2022/01/18 09:15:25;;;;;;;;;35.00;29.50;;;;;;;;5032266;28;45890;-96
2022/01/18 09:17:53;;;;;;;;;38.00;32.00;;;;;;;;5032063;28;45282;-95
2022/01/18 09:20:19;;;;;;;;;36.25;31.50;;;;;;;;5021886;28;46543;-92
2022/01/18 09:22:46;;;;;;;;;39.00;29.75;;;;;;;;5024689;28;47234;-94
2022/01/18 09:25:17;;;;;;;;;34.50;29.50;;;;;;;;5023955;28;45431;-95
2022/01/18 09:27:42;;;;;;;;;31.00;28.25;;;;;;;;5017845;28;45400;-94
2022/01/18 09:30:08;;;;;;;;;43.00;35.25;;;;;;;;5039053;28;50659;-93
2022/01/18 09:32:38;;;;;;;;;39.75;33.25;;;;;;;;5027914;28;47120;-96
2022/01/18 09:35:06;;;;;;;;;45.00;35.25;;;;;;;;5026816;28;45458;-96
2022/01/18 09:37:31;;;;;;;;;48.50;38.00;;;;;;;;5014231;28;45383;-96
2022/01/18 09:39:57;;;;;;;;;44.50;36.50;;;;;;;;5032593;28;45475;-95
2022/01/18 09:42:23;;;;;;;;;37.00;30.25;;;;;;;;5013147;28;46963;-96
2022/01/18 09:44:49;;;;;;;;;44.50;39.25;;;;;;;;5034589;28;45956;-96
2022/01/18 09:49:42;;;;;;;;;46.00;39.25;;;;;;;;5019472;28;47088;-96
2022/01/18 09:52:08;;;;;;;;;41.50;38.25;;;;;;;;5004544;28;47187;-96
2022/01/18 09:54:33;;;;;;;;;56.25;38.75;;;;;;;;5011179;28;45672;-96
2022/01/18 09:56:58;;;;;;;;;47.75;41.75;;;;;;;;5021784;28;45455;-92
2022/01/18 09:59:23;;;;;;;;;39.75;35.25;;;;;;;;5008081;28;45432;-92
2022/01/18 10:01:49;;;;;;;;;55.75;40.75;;;;;;;;5007405;28;48014;-96
2022/01/18 10:04:17;;;;;;;;;50.00;41.25;;;;;;;;5004022;28;46046;-95
2022/01/18 10:06:48;;;;;;;;;60.00;44.50;;;;;;;;5024440;28;45388;-93
2022/01/18 10:09:13;;;;;;;;;46.25;34.50;;;;;;;;5011220;28;45725;-92
2022/01/18 10:11:58;;;;;;;;;53.75;40.75;;;;;;;;5026667;28;48325;-95
2022/01/18 10:14:23;;;;;;;;;57.50;42.50;;;;;;;;5010493;28;45412;-95
2022/01/18 10:16:48;;;;;;;;;54.50;44.00;;;;;;;;5008842;28;45549;-96
2022/01/18 10:19:47;;;;;;;;;56.25;43.75;;;;;;;;5005946;28;45492;-96
2022/01/18 10:22:17;;;;;;;;;55.50;44.00;;;;;;;;4966625;28;47957;-95
2022/01/18 10:24:44;;;;;;;;;34.75;26.25;;;;;;;;4926332;28;45588;-92
2022/01/18 10:27:10;;;;;;;;;31.25;29.00;;;;;;;;4934203;28;45327;-92
2022/01/18 10:29:38;;;;;;;;;35.50;32.50;;;;;;;;4922896;28;45421;-92
2022/01/18 10:32:14;;;;;;;;;33.50;26.50;;;;;;;;4950773;28;48027;-92
2022/01/18 10:37:16;;;;;;;;;34.50;27.75;;;;;;;;4941027;28;45558;-89
2022/01/18 10:39:46;;;;;;;;;29.50;26.50;;;;;;;;4912949;28;45473;-90
2022/01/18 10:42:14;;;;;;;;;32.25;27.00;;;;;;;;4932682;28;46303;-92
2022/01/18 10:44:39;;;;;;;;;31.50;25.50;;;;;;;;4949102;28;45509;-91
2022/01/18 10:47:05;;;;;;;;;31.00;28.25;;;;;;;;4922053;28;45501;-90
2022/01/18 10:49:40;;;;;;;;;34.50;27.75;;;;;;;;4943527;28;45450;-90
2022/01/18 10:52:07;;;;;;;;;29.50;28.25;;;;;;;;4917278;28;47345;-89
2022/01/18 10:54:33;;;;;;;;;33.25;30.00;;;;;;;;4931181;28;45741;-88
2022/01/18 10:57:01;;;;;;;;;36.75;30.50;;;;;;;;4913641;28;45670;-88
2022/01/18 10:59:27;;;;;;;;;29.00;27.25;;;;;;;;5014144;28;45622;-88
2022/01/18 11:02:13;;;;;;;;;33.50;31.75;;;;;;;;5005120;28;47171;-88
2022/01/18 11:04:52;;;;;;;;;28.50;24.50;;;;;;;;5013220;28;45461;-88
2022/01/18 11:07:25;;;;;;;;;35.50;32.25;;;;;;;;5010561;28;45854;-89
2022/01/18 11:09:51;;;;;;;;;30.50;24.75;;;;;;;;4994783;28;45992;-89
2022/01/18 11:12:19;;;;;;;;;32.00;25.50;;;;;;;;5011914;28;45749;-89
2022/01/18 11:14:46;;;;;;;;;28.50;24.75;;;;;;;;5007107;28;45676;-89
2022/01/18 11:17:20;;;;;;;;;26.00;21.75;;;;;;;;5012741;28;45830;-89
2022/01/18 11:19:47;;;;;;;;;32.00;24.25;;;;;;;;5007524;28;45546;-89
2022/01/18 11:22:12;;;;;;;;;33.00;22.25;;;;;;;;5014467;28;46012;-89
2022/01/18 11:24:39;;;;;;;;;26.50;20.75;;;;;;;;4988849;28;45874;-90
2022/01/18 11:27:08;;;;;;;;;27.50;22.00;;;;;;;;5013650;28;46731;-91
2022/01/18 11:29:35;;;;;;;;;25.50;23.00;;;;;;;;4993172;28;45399;-90
2022/01/18 11:32:00;;;;;;;;;26.00;24.00;;;;;;;;5004649;28;47581;-89
2022/01/18 11:34:34;;;;;;;;;28.33;23.00;;;;;;;;5021527;28;45512;-89
2022/01/18 11:37:05;;;;;;;;;25.33;22.67;;;;;;;;4985737;28;45393;-87
2022/01/18 11:39:31;;;;;;;;;26.00;21.50;;;;;;;;5003859;28;45390;-89
2022/01/18 11:42:07;;;;;;;;;25.00;22.50;;;;;;;;5015051;28;45354;-88
2022/01/18 11:44:32;;;;;;;;;23.75;22.00;;;;;;;;5004869;28;45532;-88
2022/01/18 11:46:58;;;;;;;;;24.67;18.33;;;;;;;;5012107;28;45448;-87
2022/01/18 11:49:24;;;;;;;;;24.25;19.75;;;;;;;;5013026;28;45970;-89
2022/01/18 11:51:56;;;;;;;;;26.67;19.00;;;;;;;;5013180;28;45664;-87
2022/01/18 11:54:25;;;;;;;;;20.00;20.00;;;;;;;;5002597;28;45512;-89
2022/01/18 11:56:50;;;;;;;;;15.00;14.67;;;;;;;;5010857;28;45637;-91
2022/01/18 11:59:17;;;;;;;;;24.00;17.00;;;;;;;;5026516;28;45620;-90
2022/01/18 12:01:46;;;;;;;;;16.00;12.67;;;;;;;;4999767;28;48058;-90
2022/01/18 12:04:12;;;;;;;;;12.67;12.33;;;;;;;;5015097;28;45963;-92
2022/01/18 12:06:44;;;;;;;;;20.67;17.33;;;;;;;;4994056;28;45424;-93
2022/01/18 12:09:36;;;;;;;;;12.33;12.00;;;;;;;;4995604;28;45636;-91
2022/01/18 12:12:04;;;;;;;;;16.33;12.00;;;;;;;;5010115;28;45557;-91
2022/01/18 12:14:34;;;;;;;;;10.67;8.33;;;;;;;;5028590;28;45629;-91
2022/01/18 12:17:12;;;;;;;;;15.00;13.00;;;;;;;;4997695;28;45256;-91
2022/01/18 12:19:42;;;;;;;;;11.33;8.00;;;;;;;;5010763;28;45581;-92
2022/01/18 12:22:08;;;;;;;;;12.33;11.00;;;;;;;;4998222;28;47437;-90
2022/01/18 12:24:33;;;;;;;;;12.33;9.67;;;;;;;;5007894;28;45990;-92
2022/01/18 12:27:01;;;;;;;;;12.00;11.33;;;;;;;;5030647;28;45668;-91
2022/01/18 12:39:51;;;;;;;;;12.33;12.33;;;;;;;;5021781;28;45308;-89
2022/01/18 12:44:20;;;;;;;;;18.00;12.33;;;;;;;;5009775;28;48587;-90
2022/01/18 12:45:05;;;;;;;;;17.33;14.00;;;;;;;;4992777;28;45274;-90
2022/01/18 12:47:30;;;;;;;;;10.67;10.67;;;;;;;;5023501;28;45506;-89
2022/01/18 12:49:55;;;;;;;;;14.67;13.67;;;;;;;;4999071;28;45720;-89
2022/01/18 12:52:21;;;;;;;;;14.00;10.33;;;;;;;;5019284;28;46586;-90
2022/01/18 12:54:49;;;;;;;;;13.67;13.33;;;;;;;;5010604;28;50114;-88
2022/01/18 12:57:15;;;;;;;;;12.00;11.67;;;;;;;;4990577;28;45624;-90
2022/01/18 12:59:57;;;;;;;;;13.33;12.33;;;;;;;;4990122;28;45572;-90
2022/01/18 13:02:23;;;;;;;;;15.00;13.00;;;;;;;;5016831;28;45563;-90
2022/01/18 13:05:14;;;;;;;;;13.33;12.00;;;;;;;;5000690;28;45617;-91
2022/01/18 13:07:49;;;;;;;;;14.67;12.67;;;;;;;;5009254;28;45498;-90
2022/01/18 13:10:14;;;;;;;;;15.00;12.67;;;;;;;;5013488;28;45490;-91
2022/01/18 13:12:40;;;;;;;;;14.00;9.00;;;;;;;;5007686;28;46320;-90
2022/01/18 13:15:06;;;;;;;;;14.33;12.67;;;;;;;;4988677;28;45346;-91
2022/01/18 13:23:18;;;;;;;;;16.33;14.00;;;;;;;;5011815;28;45851;-91
2022/01/18 13:25:56;;;;;;;;;17.50;12.50;;;;;;;;5011244;28;45617;-91
2022/01/18 13:28:48;;;;;;;;;12.33;12.00;;;;;;;;4994293;28;45581;-91
2022/01/18 13:31:17;;;;;;;;;19.00;13.33;;;;;;;;4997921;28;45497;-91
2022/01/18 13:33:50;;;;;;;;;21.00;15.33;;;;;;;;4996766;28;47348;-90
2022/01/18 13:36:15;;;;;;;;;24.67;16.67;;;;;;;;4994156;28;45577;-91
2022/01/18 13:38:40;;;;;;;;;19.33;18.33;;;;;;;;5016083;28;45375;-91
2022/01/18 13:41:06;;;;;;;;;21.33;19.00;;;;;;;;5009038;28;45462;-90
2022/01/18 13:43:31;;;;;;;;;15.67;13.33;;;;;;;;4986606;28;47188;-90
2022/01/18 13:45:56;;;;;;;;;18.00;16.33;;;;;;;;5011310;28;45478;-89
2022/01/18 13:48:29;;;;;;;;;13.67;12.67;;;;;;;;5010590;28;45408;-90
2022/01/18 13:50:58;;;;;;;;;18.33;16.33;;;;;;;;4997826;28;45444;-90
2022/01/18 13:53:28;;;;;;;;;18.67;15.33;;;;;;;;5021869;28;45674;-89
2022/01/18 13:55:53;;;;;;;;;23.67;19.33;;;;;;;;5012660;28;45841;-89
2022/01/18 13:58:28;;;;;;;;;15.67;14.33;;;;;;;;5012171;28;45260;-90
2022/01/18 14:01:07;;;;;;;;;21.00;15.33;;;;;;;;5001025;28;45671;-90
2022/01/18 14:03:40;;;;;;;;;21.00;18.33;;;;;;;;5010266;28;46300;-90
2022/01/18 14:06:09;;;;;;;;;19.67;14.33;;;;;;;;5004246;28;45269;-89
2022/01/18 14:08:39;;;;;;;;;20.33;15.67;;;;;;;;4995095;28;45501;-88
2022/01/18 14:11:07;;;;;;;;;17.67;13.33;;;;;;;;4998557;28;45272;-90
2022/01/18 14:13:36;;;;;;;;;19.33;17.33;;;;;;;;4992002;28;47372;-91
2022/01/18 14:16:02;;;;;;;;;21.00;16.67;;;;;;;;4994536;28;45487;-91
2022/01/18 14:18:27;;;;;;;;;17.33;12.00;;;;;;;;4994427;28;45516;-90
2022/01/18 14:20:52;;;;;;;;;17.00;12.33;;;;;;;;4990951;28;45548;-91
2022/01/18 14:23:21;;;;;;;;;16.67;14.67;;;;;;;;4992458;28;48119;-91
2022/01/18 14:25:46;;;;;;;;;13.67;11.67;;;;;;;;5010981;28;45679;-91
2022/01/18 14:28:17;;;;;;;;;19.33;15.33;;;;;;;;4988940;28;45509;-91
2022/01/18 14:30:43;;;;;;;;;18.00;13.67;;;;;;;;5012201;28;45384;-90
2022/01/18 14:33:12;;;;;;;;;21.00;15.33;;;;;;;;5025900;28;46096;-90
2022/01/18 14:35:39;;;;;;;;;17.33;16.67;;;;;;;;4999213;28;45634;-90
2022/01/18 14:38:06;;;;;;;;;18.33;14.00;;;;;;;;5016137;28;45522;-91
2022/01/18 14:40:51;;;;;;;;;18.00;14.00;;;;;;;;5021480;28;45344;-91
2022/01/18 14:43:31;;;;;;;;;14.33;14.00;;;;;;;;5014393;28;45572;-91
2022/01/18 14:48:26;;;;;;;;;19.00;14.67;;;;;;;;5013211;28;49562;-91
2022/01/18 14:50:52;;;;;;;;;16.33;12.67;;;;;;;;5022325;28;45373;-90
2022/01/18 14:53:17;;;;;;;;;20.33;14.67;;;;;;;;4999135;28;48102;-91
2022/01/18 14:55:43;;;;;;;;;18.00;12.67;;;;;;;;5009791;28;45443;-91
2022/01/18 14:58:08;;;;;;;;;14.33;12.33;;;;;;;;4993897;28;45401;-91
2022/01/18 15:00:34;;;;;;;;;15.00;13.33;;;;;;;;4997055;28;45521;-90
2022/01/18 15:03:01;;;;;;;;;18.33;13.00;;;;;;;;5024835;28;45654;-91
2022/01/18 15:05:27;;;;;;;;;19.00;14.33;;;;;;;;5015069;28;45485;-90
2022/01/18 15:07:53;;;;;;;;;16.67;14.00;;;;;;;;4998123;28;45700;-91
2022/01/18 15:10:18;;;;;;;;;19.33;16.33;;;;;;;;5016890;28;45297;-91
2022/01/18 15:12:45;;;;;;;;;15.33;13.00;;;;;;;;5003813;28;46510;-91
2022/01/18 15:15:11;;;;;;;;;16.00;12.67;;;;;;;;5016070;28;45428;-92
2022/01/18 15:17:36;;;;;;;;;11.67;10.33;;;;;;;;5008473;28;45493;-91
2022/01/18 15:20:02;;;;;;;;;15.33;12.67;;;;;;;;5007493;28;45342;-91
2022/01/18 15:22:28;;;;;;;;;14.33;10.33;;;;;;;;5015577;28;45534;-91
2022/01/18 15:24:53;;;;;;;;;20.00;13.67;;;;;;;;5014080;28;45490;-90
2022/01/18 15:27:19;;;;;;;;;13.33;12.33;;;;;;;;4994599;28;45743;-91
2022/01/18 15:29:46;;;;;;;;;15.33;12.67;;;;;;;;5027984;28;45394;-90
2022/01/18 15:32:11;;;;;;;;;9.00;9.00;;;;;;;;5009388;28;46189;-90
2022/01/18 15:34:36;;;;;;;;;10.33;9.00;;;;;;;;5017697;28;45592;-91
2022/01/18 15:37:02;;;;;;;;;12.67;8.00;;;;;;;;4999296;28;45526;-90
2022/01/18 15:39:27;;;;;;;;;11.67;9.67;;;;;;;;4990200;28;45603;-92
2022/01/18 15:41:52;;;;;;;;;12.00;7.67;;;;;;;;4996908;28;48346;-91
2022/01/18 15:44:18;;;;;;;;;12.67;12.33;;;;;;;;4992029;28;45551;-91
2022/01/18 15:46:43;;;;;;;;;11.67;10.33;;;;;;;;5013002;28;45396;-90
2022/01/18 15:49:08;;;;;;;;;7.67;7.33;;;;;;;;4997666;28;45743;-91
2022/01/18 15:51:35;;;;;;;;;10.00;8.33;;;;;;;;5016004;28;45540;-91
2022/01/18 15:54:00;;;;;;;;;13.33;13.33;;;;;;;;5010462;28;45449;-90
2022/01/18 15:56:26;;;;;;;;;11.00;10.67;;;;;;;;5019697;28;45726;-91
2022/01/18 15:58:51;;;;;;;;;9.33;7.33;;;;;;;;4992175;28;45457;-91